createdAt,value
2017-09-21T00:02:47.904Z,14.25
2017-09-21T00:05:57.935Z,10.38
2017-09-21T00:09:08.706Z,9.68
2017-09-21T00:12:18.762Z,9.93
2017-09-21T00:15:28.652Z,8.48
2017-09-21T00:18:38.360Z,9.00
2017-09-21T00:21:48.656Z,9.95
2017-09-21T00:24:58.887Z,12.23
2017-09-21T00:28:08.686Z,11.10
2017-09-21T00:31:19.175Z,9.32
2017-09-21T00:34:29.232Z,12.70
2017-09-21T00:37:40.331Z,10.93
2017-09-21T00:40:50.094Z,12.57
2017-09-21T00:44:00.222Z,9.05
2017-09-21T00:47:10.319Z,9.13
2017-09-21T00:50:20.143Z,11.38
2017-09-21T00:53:31.259Z,10.50
2017-09-21T00:56:41.455Z,11.20
2017-09-21T00:59:51.661Z,9.60
2017-09-21T01:03:02.982Z,10.77
2017-09-21T01:06:13.375Z,10.57
2017-09-21T01:09:23.533Z,9.82
2017-09-21T01:12:33.699Z,10.93
2017-09-21T01:15:43.878Z,13.40
2017-09-21T01:18:54.510Z,13.82
2017-09-21T01:22:04.468Z,15.20
2017-09-21T01:25:14.368Z,11.52
2017-09-21T01:28:24.474Z,9.63
2017-09-21T01:31:33.827Z,13.25
2017-09-21T01:34:43.334Z,8.52
2017-09-21T01:37:53.580Z,11.55
2017-09-21T01:41:04.229Z,9.68
2017-09-21T01:44:14.179Z,10.00
2017-09-21T01:47:23.886Z,9.98
2017-09-21T01:50:34.414Z,9.35
2017-09-21T01:53:45.432Z,10.07
2017-09-21T01:56:56.720Z,10.80
2017-09-21T02:00:07.724Z,11.75
2017-09-21T02:03:18.208Z,9.38
2017-09-21T02:06:28.818Z,9.30
2017-09-21T02:09:39.578Z,15.32
2017-09-21T02:12:49.961Z,10.93
2017-09-21T02:16:00.688Z,11.50
2017-09-21T02:19:10.623Z,11.05
2017-09-21T02:22:21.154Z,12.20
2017-09-21T02:25:32.578Z,10.07
2017-09-21T02:28:43.156Z,9.05
2017-09-21T02:31:54.165Z,9.07
2017-09-21T02:35:04.385Z,11.80
2017-09-21T02:38:15.085Z,14.80
2017-09-21T02:41:25.822Z,10.52
2017-09-21T02:44:36.218Z,13.10
2017-09-21T02:47:46.450Z,9.90
2017-09-21T02:50:57.180Z,12.93
2017-09-21T02:54:07.844Z,11.12
2017-09-21T02:57:18.240Z,13.27
2017-09-21T03:00:28.442Z,11.40
2017-09-21T03:03:38.178Z,16.23
2017-09-21T03:06:48.161Z,11.30
2017-09-21T03:09:58.574Z,15.43
2017-09-21T03:13:08.728Z,15.93
2017-09-21T03:16:18.833Z,11.00
2017-09-21T03:19:28.812Z,10.77
2017-09-21T03:22:39.125Z,12.13
2017-09-21T03:25:49.714Z,11.23
2017-09-21T03:28:59.893Z,11.45
2017-09-21T03:32:10.282Z,12.82
2017-09-21T03:35:20.652Z,10.75
2017-09-21T03:38:30.929Z,11.12
2017-09-21T03:41:41.127Z,10.68
2017-09-21T03:44:51.546Z,13.52
2017-09-21T03:48:01.406Z,14.57
2017-09-21T03:51:12.086Z,9.95
2017-09-21T03:54:22.074Z,10.15
2017-09-21T03:57:33.557Z,11.15
2017-09-21T04:00:44.476Z,11.27
2017-09-21T04:03:54.972Z,13.57
2017-09-21T04:07:05.986Z,10.13
2017-09-21T04:10:16.493Z,12.85
2017-09-21T04:13:26.500Z,11.48
2017-09-21T04:16:42.716Z,9.63
2017-09-21T04:19:52.371Z,10.82
2017-09-21T04:23:03.136Z,10.98
2017-09-21T04:26:13.413Z,13.35
2017-09-21T04:29:23.536Z,11.07
2017-09-21T04:32:33.293Z,8.38
2017-09-21T04:35:43.473Z,15.40
2017-09-21T04:38:53.883Z,8.73
2017-09-21T04:42:03.734Z,9.35
2017-09-21T04:45:14.341Z,15.45
2017-09-21T04:48:24.437Z,12.95
2017-09-21T04:51:34.757Z,13.80
2017-09-21T04:54:44.855Z,22.73
2017-09-21T04:57:55.231Z,17.75
2017-09-21T05:01:05.724Z,24.65
2017-09-21T05:04:15.562Z,18.42
2017-09-21T05:07:25.936Z,15.30
2017-09-21T05:10:36.403Z,17.60
2017-09-21T05:13:46.952Z,10.38
2017-09-21T05:16:58.405Z,11.40
2017-09-21T05:20:08.013Z,9.93
2017-09-21T05:23:18.477Z,11.40
2017-09-21T05:26:28.331Z,17.25
2017-09-21T05:29:38.204Z,14.30
2017-09-21T05:32:48.722Z,16.50
2017-09-21T05:35:58.844Z,13.77
2017-09-21T05:39:09.204Z,18.42
2017-09-21T05:42:19.489Z,12.05
2017-09-21T05:45:29.337Z,16.80
2017-09-21T05:48:39.092Z,17.15
2017-09-21T05:51:49.160Z,15.40
2017-09-21T05:54:59.290Z,12.15
2017-09-21T05:58:10.005Z,16.30
2017-09-21T06:01:20.333Z,13.73
2017-09-21T06:04:30.593Z,12.32
2017-09-21T06:07:41.039Z,16.15
2017-09-21T06:10:51.086Z,12.88
2017-09-21T06:14:01.964Z,12.45
2017-09-21T06:17:12.364Z,14.63
2017-09-21T06:20:22.548Z,13.50
2017-09-21T06:23:33.493Z,14.02
2017-09-21T06:26:43.812Z,14.27
2017-09-21T06:29:53.997Z,15.23
2017-09-21T06:33:04.916Z,20.08
2017-09-21T06:36:15.432Z,13.55
2017-09-21T06:39:25.737Z,17.23
2017-09-21T06:42:35.623Z,19.30
2017-09-21T06:45:46.151Z,14.13
2017-09-21T06:48:57.094Z,14.90
2017-09-21T06:52:07.697Z,13.70
2017-09-21T06:55:17.739Z,13.82
2017-09-21T06:58:27.860Z,15.35
2017-09-21T07:01:37.834Z,18.23
2017-09-21T07:04:48.142Z,13.05
2017-09-21T07:07:58.884Z,28.60
2017-09-21T07:11:09.201Z,17.15
2017-09-21T07:14:19.271Z,18.20
2017-09-21T07:17:29.882Z,23.00
2017-09-21T07:20:40.587Z,18.95
2017-09-21T07:23:50.364Z,14.30
2017-09-21T07:27:00.841Z,17.52
2017-09-21T07:30:11.384Z,14.55
2017-09-21T07:33:21.008Z,15.77
2017-09-21T07:36:31.083Z,17.37
2017-09-21T07:39:40.876Z,16.08
2017-09-21T07:42:50.707Z,18.23
2017-09-21T07:46:01.057Z,15.93
2017-09-21T07:49:11.398Z,13.62
2017-09-21T07:52:21.836Z,20.27
2017-09-21T07:55:32.300Z,18.10
2017-09-21T07:58:42.639Z,17.42
2017-09-21T08:01:53.277Z,17.62
2017-09-21T08:05:02.975Z,15.10
2017-09-21T08:08:12.857Z,16.33
2017-09-21T08:11:22.902Z,16.12
2017-09-21T08:14:32.753Z,20.75
2017-09-21T08:17:42.856Z,22.85
2017-09-21T08:20:52.890Z,26.33
2017-09-21T08:24:03.461Z,19.00
2017-09-21T08:27:14.029Z,17.48
2017-09-21T08:30:24.177Z,15.98
2017-09-21T08:33:34.113Z,20.08
2017-09-21T08:36:44.400Z,19.05
2017-09-21T08:39:54.582Z,22.62
2017-09-21T08:43:04.803Z,22.77
2017-09-21T08:46:15.526Z,22.10
2017-09-21T08:49:26.189Z,22.83
2017-09-21T08:52:36.312Z,19.80
2017-09-21T08:55:46.583Z,22.13
2017-09-21T08:58:56.798Z,21.87
2017-09-21T09:02:07.432Z,22.37
2017-09-21T09:05:17.124Z,23.65
2017-09-21T09:08:27.136Z,25.12
2017-09-21T09:11:37.598Z,18.90
2017-09-21T09:14:47.870Z,21.45
2017-09-21T09:17:58.220Z,30.52
2017-09-21T09:21:08.721Z,31.62
2017-09-21T09:24:18.601Z,29.75
2017-09-21T09:27:28.684Z,22.00
2017-09-21T09:30:38.979Z,31.83
2017-09-21T09:33:49.431Z,30.00
2017-09-21T09:36:59.909Z,24.15
2017-09-21T09:40:10.110Z,18.77
2017-09-21T09:43:20.207Z,23.65
2017-09-21T09:46:31.280Z,22.35
2017-09-21T09:49:42.031Z,21.52
2017-09-21T09:52:52.768Z,26.48
2017-09-21T09:56:03.534Z,31.58
2017-09-21T09:59:13.689Z,22.73
2017-09-21T10:02:24.315Z,20.12
2017-09-21T10:05:34.870Z,15.32
2017-09-21T10:08:45.074Z,27.23
2017-09-21T10:11:54.902Z,20.55
2017-09-21T10:15:05.038Z,24.50
2017-09-21T10:18:15.351Z,24.05
2017-09-21T10:21:26.065Z,25.67
2017-09-21T10:24:36.190Z,20.65
2017-09-21T10:27:46.519Z,22.77
2017-09-21T10:30:56.927Z,23.05
2017-09-21T10:34:07.082Z,28.45
2017-09-21T10:37:17.688Z,21.62
2017-09-21T10:40:28.128Z,16.70
2017-09-21T10:43:39.600Z,25.10
2017-09-21T10:46:50.069Z,18.75
2017-09-21T10:50:00.264Z,22.00
2017-09-21T10:53:10.123Z,24.55
2017-09-21T10:56:20.364Z,20.00
2017-09-21T10:59:31.045Z,26.95
2017-09-21T11:02:41.017Z,28.98
2017-09-21T11:05:51.811Z,16.42
2017-09-21T11:09:01.685Z,29.05
2017-09-21T11:12:11.956Z,26.58
2017-09-21T11:15:22.545Z,21.87
2017-09-21T11:18:33.345Z,23.55
2017-09-21T11:21:43.576Z,18.75
2017-09-21T11:24:54.139Z,17.70
2017-09-21T11:28:05.325Z,17.10
2017-09-21T11:31:16.419Z,19.33
2017-09-21T11:34:26.684Z,19.05
2017-09-21T11:37:37.540Z,20.50
2017-09-21T11:40:48.485Z,20.73
2017-09-21T11:43:58.510Z,24.30
2017-09-21T11:47:08.879Z,19.40
2017-09-21T11:50:18.948Z,18.70
2017-09-21T11:53:28.675Z,22.15
2017-09-21T11:56:39.040Z,19.37
2017-09-21T11:59:49.039Z,21.05
2017-09-21T12:02:58.948Z,31.77
2017-09-21T12:06:09.417Z,19.65
2017-09-21T12:09:19.957Z,27.02
2017-09-21T12:12:30.229Z,23.77
2017-09-21T12:15:40.340Z,20.37
2017-09-21T12:18:50.286Z,22.77
2017-09-21T12:22:00.240Z,21.83
2017-09-21T12:25:10.359Z,27.30
2017-09-21T12:28:21.049Z,21.83
2017-09-21T12:31:30.836Z,20.05
2017-09-21T12:34:41.388Z,17.30
2017-09-21T12:37:51.275Z,27.13
2017-09-21T12:41:01.383Z,21.00
2017-09-21T12:44:11.807Z,17.23
2017-09-21T12:47:21.901Z,18.37
2017-09-21T12:50:32.191Z,15.68
2017-09-21T12:53:42.607Z,19.77
2017-09-21T12:56:53.281Z,18.55
2017-09-21T13:00:03.676Z,13.27
2017-09-21T13:03:13.943Z,16.83
2017-09-21T13:06:24.343Z,16.70
2017-09-21T13:09:34.683Z,13.40
2017-09-21T13:12:44.847Z,8.68
2017-09-21T13:15:55.410Z,18.05
2017-09-21T13:19:05.466Z,24.25
2017-09-21T13:22:16.226Z,20.83
2017-09-21T13:25:27.006Z,14.48
2017-09-21T13:28:36.923Z,16.25
2017-09-21T13:31:47.230Z,17.40
2017-09-21T13:34:57.641Z,12.63
2017-09-21T13:38:07.749Z,18.25
2017-09-21T13:41:17.919Z,16.17
2017-09-21T13:44:29.532Z,14.82
2017-09-21T13:47:39.817Z,13.85
2017-09-21T13:50:50.302Z,17.50
2017-09-21T13:54:00.188Z,16.30
2017-09-21T13:57:09.962Z,20.12
2017-09-21T14:00:20.226Z,20.10
2017-09-21T14:03:30.422Z,16.70
2017-09-21T14:06:40.998Z,23.20
2017-09-21T14:09:52.607Z,16.90
2017-09-21T14:13:04.204Z,15.48
2017-09-21T14:16:14.938Z,17.62
2017-09-21T14:19:26.769Z,13.82
2017-09-21T14:22:38.102Z,22.23
2017-09-21T14:25:48.777Z,19.05
2017-09-21T14:28:59.755Z,17.50
2017-09-21T14:32:10.466Z,17.62
2017-09-21T14:35:20.770Z,29.02
2017-09-21T14:38:31.383Z,20.05
2017-09-21T14:41:41.558Z,19.87
2017-09-21T14:44:52.178Z,15.90
2017-09-21T14:48:04.789Z,19.17
2017-09-21T14:51:15.436Z,20.08
2017-09-21T14:54:25.372Z,19.37
2017-09-21T14:57:35.207Z,19.50
2017-09-21T15:00:45.419Z,23.77
2017-09-21T15:03:55.386Z,18.52
2017-09-21T15:07:06.049Z,16.40
2017-09-21T15:10:16.504Z,16.20
2017-09-21T15:13:26.495Z,15.05
2017-09-21T15:16:36.544Z,16.50
2017-09-21T15:19:46.635Z,17.52
2017-09-21T15:22:57.087Z,19.45
2017-09-21T15:26:07.333Z,20.92
2017-09-21T15:29:18.335Z,17.48
2017-09-21T15:32:28.646Z,25.88
2017-09-21T15:35:39.071Z,15.32
2017-09-21T15:38:49.388Z,23.95
2017-09-21T15:42:00.269Z,19.60
2017-09-21T15:45:11.270Z,16.67
2017-09-21T15:48:21.048Z,25.80
2017-09-21T15:51:35.388Z,17.23
2017-09-21T15:54:46.769Z,15.52
2017-09-21T16:01:24.429Z,18.02
2017-09-21T16:04:35.170Z,24.37
2017-09-21T16:07:45.340Z,25.45
2017-09-21T16:10:55.005Z,24.12
2017-09-21T16:14:05.475Z,25.20
2017-09-21T16:17:15.362Z,23.17
2017-09-21T16:20:26.715Z,22.17
2017-09-21T16:23:37.610Z,23.65
2017-09-21T16:26:47.648Z,22.52
2017-09-21T16:29:57.572Z,25.45
2017-09-21T16:33:08.685Z,19.73
2017-09-21T16:36:18.994Z,20.88
2017-09-21T16:39:28.960Z,26.00
2017-09-21T16:42:40.411Z,26.02
2017-09-21T16:45:50.895Z,22.30
2017-09-21T16:49:01.469Z,26.02
2017-09-21T16:52:11.589Z,18.87
2017-09-21T16:55:21.840Z,17.65
2017-09-21T16:58:31.963Z,19.45
2017-09-21T17:01:42.993Z,19.40
2017-09-21T17:04:53.821Z,15.65
2017-09-21T17:08:04.642Z,14.60
2017-09-21T17:11:15.978Z,17.95
2017-09-21T17:14:26.603Z,18.02
2017-09-21T17:17:37.987Z,14.98
2017-09-21T17:20:47.829Z,14.73
2017-09-21T17:23:58.223Z,23.80
2017-09-21T17:27:08.625Z,16.83
2017-09-21T17:30:19.914Z,18.62
2017-09-21T17:33:30.053Z,16.30
2017-09-21T17:36:40.206Z,15.15
2017-09-21T17:39:50.304Z,20.55
2017-09-21T17:43:00.442Z,16.55
2017-09-21T17:46:10.890Z,25.23
2017-09-21T17:49:20.985Z,15.27
2017-09-21T17:52:30.956Z,19.90
2017-09-21T17:55:43.967Z,17.48
2017-09-21T18:02:20.188Z,12.70
2017-09-21T18:05:30.648Z,15.35
2017-09-21T18:08:41.566Z,14.13
2017-09-21T18:11:51.726Z,15.07
2017-09-21T18:15:01.886Z,16.55
2017-09-21T18:18:12.576Z,18.20
2017-09-21T18:21:22.559Z,17.92
2017-09-21T18:24:32.688Z,17.85
2017-09-21T18:27:43.390Z,16.77
2017-09-21T18:30:54.505Z,13.75
2017-09-21T18:34:04.781Z,12.20
2017-09-21T18:37:15.076Z,18.27
2017-09-21T18:40:25.262Z,15.73
2017-09-21T18:43:35.051Z,16.02
2017-09-21T18:46:45.439Z,14.75
2017-09-21T18:49:56.361Z,14.30
2017-09-21T18:53:06.608Z,15.68
2017-09-21T18:56:16.791Z,15.43
2017-09-21T18:59:27.621Z,13.18
2017-09-21T19:02:37.938Z,13.73
2017-09-21T19:05:48.068Z,14.80
2017-09-21T19:08:58.358Z,15.00
2017-09-21T19:12:08.566Z,16.98
2017-09-21T19:15:19.585Z,16.40
2017-09-21T19:18:31.840Z,12.65
2017-09-21T19:21:41.836Z,16.90
2017-09-21T19:24:51.780Z,16.10
2017-09-21T19:28:02.290Z,18.98
2017-09-21T19:31:15.766Z,12.15
2017-09-21T19:34:27.950Z,17.33
2017-09-21T19:37:38.318Z,17.08
2017-09-21T19:40:49.637Z,15.55
2017-09-21T19:44:00.300Z,15.98
2017-09-21T19:47:10.757Z,14.90
2017-09-21T19:50:21.896Z,17.42
2017-09-21T19:53:31.923Z,17.05
2017-09-21T19:56:42.061Z,15.15
2017-09-21T19:59:52.142Z,17.20
2017-09-21T20:03:02.420Z,17.23
2017-09-21T20:06:12.465Z,13.20
2017-09-21T20:09:23.105Z,15.48
2017-09-21T20:12:33.797Z,13.95
2017-09-21T20:15:44.921Z,18.33
2017-09-21T20:18:55.696Z,15.90
2017-09-21T20:22:06.345Z,17.25
2017-09-21T20:25:16.572Z,13.57
2017-09-21T20:28:27.873Z,15.60
2017-09-21T20:31:37.804Z,18.45
2017-09-21T20:34:48.583Z,13.18
2017-09-21T20:37:58.547Z,13.68
2017-09-21T20:41:09.354Z,14.87
2017-09-21T20:44:20.805Z,14.10
2017-09-21T20:47:31.087Z,15.40
2017-09-21T20:50:41.767Z,13.02
2017-09-21T20:53:52.052Z,14.40
2017-09-21T20:57:02.418Z,16.70
2017-09-21T21:00:12.780Z,18.12
2017-09-21T21:03:23.209Z,13.57
2017-09-21T21:06:33.587Z,15.95
2017-09-21T21:09:43.504Z,18.27
2017-09-21T21:12:54.396Z,12.18
2017-09-21T21:16:05.839Z,14.23
2017-09-21T21:19:16.399Z,17.45
2017-09-21T21:22:26.840Z,16.17
2017-09-21T21:25:36.999Z,22.77
2017-09-21T21:28:47.241Z,13.62
2017-09-21T21:31:57.683Z,13.35
2017-09-21T21:35:08.316Z,15.32
2017-09-21T21:38:18.446Z,15.95
2017-09-21T21:41:28.798Z,13.65
2017-09-21T21:44:39.502Z,15.55
2017-09-21T21:47:49.959Z,13.05
2017-09-21T21:51:00.645Z,17.45
2017-09-21T21:54:11.324Z,14.43
2017-09-21T21:57:23.037Z,17.08
2017-09-21T22:00:33.437Z,18.15
2017-09-21T22:03:43.672Z,14.55
2017-09-21T22:06:54.054Z,11.88
2017-09-21T22:10:04.223Z,14.60
2017-09-21T22:13:14.627Z,12.35
2017-09-21T22:16:24.953Z,10.73
2017-09-21T22:19:36.029Z,15.25
2017-09-21T22:22:46.166Z,15.75
2017-09-21T22:25:57.077Z,14.20
2017-09-21T22:29:07.162Z,18.25
2017-09-21T22:32:17.577Z,16.08
2017-09-21T22:35:27.563Z,13.82
2017-09-21T22:38:38.463Z,17.67
2017-09-21T22:41:48.622Z,13.77
2017-09-21T22:44:59.538Z,13.43
2017-09-21T22:48:10.390Z,12.07
2017-09-21T22:51:20.548Z,18.55
2017-09-21T22:54:30.483Z,13.20
2017-09-21T22:57:40.696Z,14.32
2017-09-21T23:00:52.172Z,14.13
2017-09-21T23:04:02.135Z,14.50
2017-09-21T23:07:12.436Z,13.10
2017-09-21T23:10:23.840Z,13.55
2017-09-21T23:13:34.573Z,13.30
2017-09-21T23:16:45.269Z,13.55
2017-09-21T23:19:55.672Z,14.90
2017-09-21T23:23:05.722Z,12.27
2017-09-21T23:26:15.726Z,12.05
2017-09-21T23:29:26.262Z,14.10
2017-09-21T23:32:36.651Z,14.90
2017-09-21T23:35:46.890Z,15.80
2017-09-21T23:38:57.125Z,15.40
2017-09-21T23:42:08.447Z,12.07
2017-09-21T23:45:18.782Z,14.38
2017-09-21T23:48:29.095Z,14.00
2017-09-21T23:51:39.509Z,14.82
2017-09-21T23:54:49.875Z,13.98
2017-09-21T23:58:00.647Z,11.32
